createdAt,value
2022-09-09T00:01:29.658Z,88.59
2022-09-09T00:04:04.926Z,88.63
2022-09-09T00:06:36.334Z,87.93
2022-09-09T00:09:11.856Z,88.20
2022-09-09T00:11:46.331Z,88.64
2022-09-09T00:14:23.711Z,88.85
2022-09-09T00:16:57.062Z,88.90
2022-09-09T00:19:33.191Z,88.50
2022-09-09T00:22:10.173Z,89.51
2022-09-09T00:24:43.970Z,89.64
2022-09-09T00:27:18.609Z,89.69
2022-09-09T00:29:54.724Z,89.24
2022-09-09T00:32:23.340Z,89.21
2022-09-09T00:34:56.958Z,89.49
2022-09-09T00:37:27.197Z,89.63
2022-09-09T00:39:59.044Z,90.11
2022-09-09T00:42:32.996Z,89.65
2022-09-09T00:45:13.082Z,89.31
2022-09-09T00:47:45.277Z,89.26
2022-09-09T00:50:37.221Z,89.53
2022-09-09T00:53:21.923Z,90.01
2022-09-09T00:55:56.700Z,90.00
2022-09-09T00:58:24.605Z,90.85
2022-09-09T01:00:54.903Z,90.84
2022-09-09T01:03:36.222Z,90.89
2022-09-09T01:06:15.280Z,90.96
2022-09-09T01:09:06.319Z,90.57
2022-09-09T01:11:40.089Z,90.92
2022-09-09T01:14:20.805Z,91.25
2022-09-09T01:16:49.770Z,91.05
2022-09-09T01:19:26.248Z,91.03
2022-09-09T01:22:05.619Z,91.50
2022-09-09T01:24:42.476Z,91.93
2022-09-09T01:27:27.096Z,91.35
2022-09-09T01:29:55.603Z,89.24
2022-09-09T01:32:44.105Z,87.71
2022-09-09T01:35:19.584Z,82.26
2022-09-09T01:37:47.211Z,80.62
2022-09-09T01:40:15.330Z,79.75
2022-09-09T01:42:44.678Z,78.27
2022-09-09T01:45:12.399Z,77.31
2022-09-09T01:47:40.274Z,78.20
2022-09-09T01:50:19.745Z,77.43
2022-09-09T01:52:50.440Z,78.28
2022-09-09T01:55:29.995Z,78.00
2022-09-09T01:58:13.672Z,78.56
2022-09-09T02:00:53.396Z,79.73
2022-09-09T02:03:27.148Z,78.55
2022-09-09T02:06:21.664Z,78.79
2022-09-09T02:08:54.019Z,79.16
2022-09-09T02:11:24.939Z,80.20
2022-09-09T02:14:06.416Z,79.96
2022-09-09T02:16:40.484Z,80.47
2022-09-09T02:19:14.160Z,80.93
2022-09-09T02:21:59.860Z,80.59
2022-09-09T02:24:29.591Z,80.64
2022-09-09T02:27:11.070Z,80.94
2022-09-09T02:29:43.133Z,81.31
2022-09-09T02:32:16.040Z,81.97
2022-09-09T02:34:47.224Z,81.56
2022-09-09T02:37:17.999Z,82.22
2022-09-09T02:39:49.833Z,82.33
2022-09-09T02:42:21.060Z,82.62
2022-09-09T02:44:50.494Z,83.03
2022-09-09T02:47:29.097Z,84.06
2022-09-09T02:50:08.755Z,84.17
2022-09-09T02:52:44.412Z,83.75
2022-09-09T02:55:19.584Z,84.18
2022-09-09T02:57:50.324Z,84.65
2022-09-09T03:00:26.791Z,83.59
2022-09-09T03:02:56.462Z,84.30
2022-09-09T03:05:24.516Z,84.80
2022-09-09T03:07:52.135Z,85.86
2022-09-09T03:10:21.189Z,85.08
2022-09-09T03:12:48.720Z,84.69
2022-09-09T03:15:18.368Z,85.28
2022-09-09T03:17:48.011Z,85.66
2022-09-09T03:20:15.731Z,86.24
2022-09-09T03:22:45.907Z,87.42
2022-09-09T03:25:13.464Z,87.88
2022-09-09T03:27:41.215Z,88.71
2022-09-09T03:30:10.084Z,88.75
2022-09-09T03:32:37.605Z,89.00
2022-09-09T03:35:07.220Z,89.50
2022-09-09T03:37:34.857Z,89.51
2022-09-09T03:40:02.900Z,89.87
2022-09-09T03:42:31.765Z,90.33
2022-09-09T03:45:00.300Z,90.80
2022-09-09T03:47:28.377Z,91.15
2022-09-09T03:50:03.051Z,91.31
2022-09-09T03:52:32.230Z,91.41
2022-09-09T03:55:00.168Z,91.76
2022-09-09T03:57:27.760Z,92.11
2022-09-09T03:59:55.312Z,91.61
2022-09-09T04:02:23.335Z,91.69
2022-09-09T04:04:51.079Z,92.04
2022-09-09T04:07:18.757Z,92.75
2022-09-09T04:09:47.836Z,92.96
2022-09-09T04:12:17.515Z,93.51
2022-09-09T04:14:45.110Z,93.31
2022-09-09T04:17:12.645Z,92.97
2022-09-09T04:19:40.576Z,93.38
2022-09-09T04:22:09.172Z,93.32
2022-09-09T04:24:36.875Z,93.31
2022-09-09T04:27:06.244Z,92.73
2022-09-09T04:29:36.008Z,92.56
2022-09-09T04:32:04.112Z,92.97
2022-09-09T04:34:32.217Z,92.96
2022-09-09T04:37:00.528Z,92.80
2022-09-09T04:39:28.611Z,92.28
2022-09-09T04:41:56.713Z,92.36
2022-09-09T04:44:25.628Z,92.24
2022-09-09T04:46:53.227Z,92.09
2022-09-09T04:49:21.161Z,92.24
2022-09-09T04:51:50.815Z,92.68
2022-09-09T04:54:19.930Z,92.79
2022-09-09T04:56:48.219Z,93.06
2022-09-09T04:59:15.790Z,92.84
2022-09-09T05:01:48.796Z,92.21
2022-09-09T05:04:17.180Z,91.96
2022-09-09T05:06:45.006Z,91.76
2022-09-09T05:09:13.918Z,92.12
2022-09-09T05:11:41.557Z,92.23
2022-09-09T05:14:16.295Z,91.62
2022-09-09T05:16:45.212Z,89.74
2022-09-09T05:19:14.597Z,88.65
2022-09-09T05:21:46.354Z,87.47
2022-09-09T05:24:16.115Z,88.32
2022-09-09T05:26:45.029Z,89.00
2022-09-09T05:29:12.665Z,86.97
2022-09-09T05:31:42.265Z,84.99
2022-09-09T05:34:15.098Z,84.83
2022-09-09T05:36:42.848Z,83.54
2022-09-09T05:39:12.902Z,83.32
2022-09-09T05:41:40.868Z,81.40
2022-09-09T05:44:08.473Z,80.90
2022-09-09T05:46:39.919Z,81.04
2022-09-09T05:49:09.234Z,79.49
2022-09-09T05:51:38.812Z,79.48
2022-09-09T05:54:11.040Z,78.62
2022-09-09T05:56:43.549Z,79.39
2022-09-09T05:59:12.347Z,77.02
2022-09-09T06:01:42.037Z,77.82
2022-09-09T06:04:16.044Z,78.22
2022-09-09T06:06:45.016Z,78.01
2022-09-09T06:09:16.748Z,77.38
2022-09-09T06:11:45.015Z,77.48
2022-09-09T06:14:14.037Z,77.32
2022-09-09T06:16:44.985Z,77.31
2022-09-09T06:19:18.781Z,76.54
2022-09-09T06:21:48.753Z,76.74
2022-09-09T06:24:18.343Z,73.55
2022-09-09T06:26:46.253Z,75.12
2022-09-09T06:29:18.728Z,75.38
2022-09-09T06:31:46.855Z,74.46
2022-09-09T06:34:17.336Z,70.21
2022-09-09T06:36:50.587Z,69.36
2022-09-09T06:39:18.202Z,71.23
2022-09-09T06:41:46.662Z,70.50
2022-09-09T06:44:40.080Z,71.57
2022-09-09T06:47:12.216Z,71.23
2022-09-09T06:49:42.504Z,72.58
2022-09-09T06:52:13.864Z,70.53
2022-09-09T06:54:42.890Z,71.61
2022-09-09T06:57:36.005Z,71.25
2022-09-09T06:59:58.457Z,71.08
2022-09-09T07:02:26.482Z,71.07
2022-09-09T07:04:54.956Z,70.84
2022-09-09T07:07:25.835Z,72.46
2022-09-09T07:09:53.656Z,71.17
2022-09-09T07:12:21.897Z,71.17
2022-09-09T07:14:56.092Z,70.68
2022-09-09T07:17:23.740Z,68.95
2022-09-09T07:19:51.475Z,68.07
2022-09-09T07:22:20.765Z,66.98
2022-09-09T07:24:49.877Z,65.12
2022-09-09T07:27:17.480Z,65.76
2022-09-09T07:29:46.572Z,66.25
2022-09-09T07:32:14.635Z,66.04
2022-09-09T07:34:43.688Z,66.41
2022-09-09T07:37:12.628Z,67.08
2022-09-09T07:39:42.981Z,66.38
2022-09-09T07:42:12.622Z,66.50
2022-09-09T07:44:41.024Z,66.81
2022-09-09T07:47:16.778Z,67.28
2022-09-09T07:49:47.819Z,67.16
2022-09-09T07:52:21.769Z,66.37
2022-09-09T07:54:53.366Z,64.85
2022-09-09T07:57:22.418Z,64.53
2022-09-09T07:59:51.555Z,64.28
2022-09-09T08:02:19.149Z,64.26
2022-09-09T08:04:47.263Z,64.33
2022-09-09T08:07:17.988Z,64.17
2022-09-09T08:09:52.856Z,64.29
2022-09-09T08:12:25.963Z,61.07
2022-09-09T08:14:55.874Z,61.10
2022-09-09T08:17:25.605Z,62.34
2022-09-09T08:19:55.076Z,60.18
2022-09-09T08:22:27.224Z,60.32
2022-09-09T08:24:56.020Z,60.21
2022-09-09T08:27:24.254Z,60.58
2022-09-09T08:29:54.103Z,61.61
2022-09-09T08:32:21.825Z,59.66
2022-09-09T08:34:54.551Z,60.33
2022-09-09T08:37:24.182Z,63.51
2022-09-09T08:39:54.078Z,65.62
2022-09-09T08:42:42.631Z,67.12
2022-09-09T08:45:26.523Z,74.40
2022-09-09T08:48:05.479Z,80.00
2022-09-09T08:50:39.340Z,80.58
2022-09-09T08:53:18.344Z,81.93
2022-09-09T08:55:50.179Z,82.24
2022-09-09T08:58:23.636Z,82.79
2022-09-09T09:01:12.022Z,82.98
2022-09-09T09:03:55.231Z,78.08
2022-09-09T09:06:38.256Z,79.93
2022-09-09T09:09:14.557Z,80.21
2022-09-09T09:11:48.646Z,80.44
2022-09-09T09:14:24.235Z,78.62
2022-09-09T09:16:59.367Z,77.65
2022-09-09T09:19:31.077Z,77.82
2022-09-09T09:22:06.116Z,77.52
2022-09-09T09:24:43.186Z,78.19
2022-09-09T09:27:17.075Z,76.54
2022-09-09T09:30:20.314Z,77.34
2022-09-09T09:32:46.209Z,76.72
2022-09-09T09:35:15.188Z,76.70
2022-09-09T09:40:34.991Z,68.04
2022-09-09T09:43:08.682Z,69.30
2022-09-09T09:45:55.407Z,70.05
2022-09-09T09:48:35.574Z,71.33
2022-09-09T09:51:09.221Z,72.33
2022-09-09T09:53:38.144Z,70.65
2022-09-09T09:56:08.773Z,70.48
2022-09-09T09:58:51.014Z,71.01
2022-09-09T10:01:25.261Z,68.49
2022-09-09T10:03:55.793Z,69.28
2022-09-09T10:06:33.294Z,69.84
2022-09-09T10:09:01.543Z,69.64
2022-09-09T10:11:46.289Z,67.27
2022-09-09T10:14:22.600Z,64.13
2022-09-09T10:17:03.999Z,64.36
2022-09-09T10:19:35.084Z,64.14
2022-09-09T10:22:27.161Z,64.48
2022-09-09T10:25:26.332Z,62.23
2022-09-09T10:28:20.446Z,61.99
2022-09-09T10:31:00.978Z,61.90
2022-09-09T10:33:35.878Z,60.62
2022-09-09T10:36:14.503Z,59.45
2022-09-09T10:38:44.572Z,61.22
2022-09-09T10:41:21.238Z,60.64
2022-09-09T10:44:19.243Z,59.03
2022-09-09T10:47:10.132Z,59.29
2022-09-09T10:49:58.934Z,61.50
2022-09-09T10:52:36.199Z,61.61
2022-09-09T10:55:12.085Z,61.79
2022-09-09T10:57:44.020Z,62.41
2022-09-09T11:00:20.378Z,60.62
2022-09-09T11:02:53.477Z,60.93
2022-09-09T11:05:23.090Z,58.31
2022-09-09T11:07:57.772Z,57.62
2022-09-09T11:10:31.319Z,58.05
2022-09-09T11:13:05.260Z,56.17
2022-09-09T11:15:41.828Z,55.63
2022-09-09T11:18:15.788Z,54.62
2022-09-09T11:20:45.303Z,53.86
2022-09-09T11:23:19.239Z,53.62
2022-09-09T11:25:53.357Z,55.02
2022-09-09T11:28:34.811Z,55.34
2022-09-09T11:31:19.176Z,55.88
2022-09-09T11:34:29.018Z,55.12
2022-09-09T11:37:19.147Z,55.51
2022-09-09T11:40:01.330Z,54.70
2022-09-09T11:42:29.131Z,54.40
2022-09-09T11:44:57.712Z,51.60
2022-09-09T11:47:30.812Z,51.63
2022-09-09T11:50:10.700Z,49.56
2022-09-09T11:52:39.894Z,47.82
2022-09-09T11:55:13.813Z,45.40
2022-09-09T11:57:47.613Z,45.93
2022-09-09T12:00:34.782Z,46.78
2022-09-09T12:03:02.467Z,43.98
2022-09-09T12:05:39.572Z,43.50
2022-09-09T12:08:08.342Z,43.79
2022-09-09T12:10:40.918Z,42.82
2022-09-09T12:13:18.292Z,43.99
2022-09-09T12:15:50.609Z,45.12
2022-09-09T12:18:24.501Z,44.05
2022-09-09T12:20:59.039Z,42.53
2022-09-09T12:23:45.179Z,43.73
2022-09-09T12:26:28.599Z,44.73
2022-09-09T12:29:05.486Z,44.66
2022-09-09T12:31:45.141Z,44.95
2022-09-09T12:34:17.296Z,44.05
2022-09-09T12:36:51.849Z,43.74
2022-09-09T12:39:29.868Z,44.12
2022-09-09T12:41:58.754Z,44.31
2022-09-09T12:44:29.686Z,43.30
2022-09-09T12:47:00.295Z,41.57
2022-09-09T12:49:35.347Z,40.08
2022-09-09T12:52:06.706Z,40.55
2022-09-09T12:54:36.840Z,43.54
2022-09-09T12:57:06.981Z,44.10
2022-09-09T12:59:40.123Z,46.34
2022-09-09T13:02:19.655Z,47.55
2022-09-09T13:04:48.515Z,48.37
2022-09-09T13:07:17.288Z,50.39
2022-09-09T13:09:45.700Z,53.30
2022-09-09T13:12:16.984Z,53.50
2022-09-09T13:14:48.045Z,53.08
2022-09-09T13:17:22.908Z,51.36
2022-09-09T13:19:53.455Z,48.29
2022-09-09T13:22:25.828Z,43.48
2022-09-09T13:25:03.925Z,43.88
2022-09-09T13:27:35.381Z,44.60
2022-09-09T13:30:03.296Z,45.70
2022-09-09T13:32:31.940Z,49.93
2022-09-09T13:35:00.881Z,52.18
2022-09-09T13:37:33.765Z,51.24
2022-09-09T13:40:01.428Z,51.78
2022-09-09T13:42:31.868Z,51.65
2022-09-09T13:45:01.848Z,52.02
2022-09-09T13:47:32.433Z,51.33
2022-09-09T13:50:00.176Z,47.05
2022-09-09T13:52:31.944Z,44.07
2022-09-09T13:55:00.222Z,42.50
2022-09-09T13:57:28.036Z,40.52
2022-09-09T14:00:05.807Z,37.33
2022-09-09T14:02:35.577Z,40.03
2022-09-09T14:05:03.136Z,40.87
2022-09-09T14:07:30.947Z,38.19
2022-09-09T14:09:58.769Z,36.66
2022-09-09T14:12:26.376Z,37.70
2022-09-09T14:14:53.899Z,36.48
2022-09-09T14:17:23.092Z,34.25
2022-09-09T14:19:52.080Z,32.04
2022-09-09T14:22:19.649Z,28.87
2022-09-09T14:24:47.604Z,28.21
2022-09-09T14:27:15.219Z,27.80
2022-09-09T14:29:44.538Z,28.46
2022-09-09T14:32:12.873Z,26.99
2022-09-09T14:34:41.472Z,27.91
2022-09-09T14:37:10.353Z,28.58
2022-09-09T14:39:37.902Z,29.95
2022-09-09T14:42:06.248Z,36.10
2022-09-09T14:44:34.574Z,37.56
2022-09-09T14:47:02.077Z,38.70
2022-09-09T14:49:29.678Z,40.27
2022-09-09T14:51:57.248Z,40.59
2022-09-09T14:54:26.136Z,42.59
2022-09-09T14:56:53.673Z,44.56
2022-09-09T14:59:21.259Z,46.85
2022-09-09T15:01:48.814Z,45.97
2022-09-09T15:04:17.664Z,45.93
2022-09-09T15:06:48.967Z,45.83
2022-09-09T15:09:16.783Z,49.23
2022-09-09T15:11:45.990Z,53.90
2022-09-09T15:14:13.939Z,54.45
2022-09-09T15:16:42.177Z,54.16
2022-09-09T15:19:10.105Z,54.43
2022-09-09T15:21:39.201Z,53.90
2022-09-09T15:24:09.146Z,55.24
2022-09-09T15:26:39.376Z,55.55
2022-09-09T15:29:09.419Z,54.85
2022-09-09T15:31:37.971Z,52.42
2022-09-09T15:34:07.132Z,50.28
2022-09-09T15:36:36.371Z,47.09
2022-09-09T15:39:05.920Z,44.58
2022-09-09T15:41:33.577Z,43.42
2022-09-09T15:44:02.282Z,45.20
2022-09-09T15:46:33.460Z,46.85
2022-09-09T15:49:06.632Z,48.32
2022-09-09T15:51:43.279Z,50.90
2022-09-09T15:54:12.979Z,53.12
2022-09-09T15:56:40.504Z,55.50
2022-09-09T15:59:08.266Z,57.00
2022-09-09T16:01:38.733Z,56.95
2022-09-09T16:04:07.230Z,57.26
2022-09-09T16:06:35.151Z,57.51
2022-09-09T16:09:05.323Z,58.51
2022-09-09T16:11:35.883Z,58.88
2022-09-09T16:14:04.930Z,58.60
2022-09-09T16:16:33.075Z,60.07
2022-09-09T16:19:06.232Z,59.59
2022-09-09T16:21:36.053Z,60.98
2022-09-09T16:24:05.618Z,61.33
2022-09-09T16:26:35.151Z,62.40
2022-09-09T16:29:03.561Z,62.19
2022-09-09T16:31:32.986Z,62.84
2022-09-09T16:34:04.114Z,63.79
2022-09-09T16:36:34.934Z,63.44
2022-09-09T16:39:04.194Z,63.51
2022-09-09T16:41:32.229Z,63.40
2022-09-09T16:44:03.191Z,63.99
2022-09-09T16:46:32.399Z,63.85
2022-09-09T16:49:03.063Z,64.08
2022-09-09T16:51:32.585Z,63.35
2022-09-09T16:54:02.293Z,63.68
2022-09-09T16:56:32.917Z,63.35
2022-09-09T16:59:02.063Z,64.44
2022-09-09T17:01:32.546Z,63.31
2022-09-09T17:04:03.360Z,63.47
2022-09-09T17:06:31.816Z,62.70
2022-09-09T17:09:02.185Z,63.38
2022-09-09T17:11:31.124Z,65.13
2022-09-09T17:13:59.927Z,66.52
2022-09-09T17:16:29.394Z,66.96
2022-09-09T17:18:59.412Z,67.41
2022-09-09T17:21:29.841Z,66.73
2022-09-09T17:23:58.788Z,67.81
2022-09-09T17:26:28.477Z,69.37
2022-09-09T17:28:59.481Z,69.32
2022-09-09T17:31:29.280Z,69.08
2022-09-09T17:33:58.618Z,69.67
2022-09-09T17:36:29.793Z,70.75
2022-09-09T17:38:57.711Z,71.25
2022-09-09T17:41:28.517Z,71.68
2022-09-09T17:43:58.003Z,72.11
2022-09-09T17:46:27.598Z,72.98
2022-09-09T17:48:59.429Z,74.19
2022-09-09T17:51:30.629Z,74.91
2022-09-09T17:54:01.150Z,76.19
2022-09-09T17:56:31.437Z,77.48
2022-09-09T17:59:00.225Z,77.64
2022-09-09T18:01:30.165Z,79.43
2022-09-09T18:04:00.953Z,79.55
2022-09-09T18:06:33.716Z,79.50
2022-09-09T18:09:04.161Z,79.48
2022-09-09T18:11:34.145Z,80.20
2022-09-09T18:14:04.394Z,79.72
2022-09-09T18:16:34.713Z,79.29
2022-09-09T18:19:03.342Z,79.18
2022-09-09T18:21:33.280Z,79.18
2022-09-09T18:24:02.604Z,79.34
2022-09-09T18:26:30.631Z,79.90
2022-09-09T18:29:01.167Z,79.99
2022-09-09T18:31:30.053Z,80.21
2022-09-09T18:34:00.520Z,80.21
2022-09-09T18:36:30.084Z,80.48
2022-09-09T18:39:00.499Z,81.08
2022-09-09T18:41:30.425Z,81.03
2022-09-09T18:43:59.729Z,81.39
2022-09-09T18:46:31.454Z,81.00
2022-09-09T18:48:59.292Z,81.68
2022-09-09T18:51:29.512Z,81.91
2022-09-09T18:54:01.147Z,82.16
2022-09-09T18:56:29.548Z,82.77
2022-09-09T18:58:59.917Z,82.84
2022-09-09T19:01:28.789Z,83.18
2022-09-09T19:03:57.729Z,83.15
2022-09-09T19:06:27.643Z,83.37
2022-09-09T19:08:59.135Z,83.86
2022-09-09T19:11:32.004Z,84.42
2022-09-09T19:14:02.218Z,84.44
2022-09-09T19:16:32.014Z,84.37
2022-09-09T19:19:01.322Z,84.36
2022-09-09T19:21:31.308Z,84.67
2022-09-09T19:24:01.278Z,84.72
2022-09-09T19:26:29.739Z,84.35
2022-09-09T19:29:00.537Z,84.89
2022-09-09T19:31:28.849Z,85.16
2022-09-09T19:33:57.344Z,85.01
2022-09-09T19:36:27.579Z,84.94
2022-09-09T19:38:55.887Z,84.75
2022-09-09T19:41:25.642Z,85.72
2022-09-09T19:43:57.216Z,85.24
2022-09-09T19:46:26.340Z,84.78
2022-09-09T19:48:53.920Z,85.44
2022-09-09T19:51:23.189Z,85.46
2022-09-09T19:53:53.036Z,85.65
2022-09-09T19:56:23.037Z,85.26
2022-09-09T19:58:50.673Z,85.33
2022-09-09T20:01:20.324Z,83.47
2022-09-09T20:03:52.204Z,84.01
2022-09-09T20:06:23.517Z,84.39
2022-09-09T20:08:51.808Z,84.94
2022-09-09T20:11:20.424Z,85.46
2022-09-09T20:13:49.381Z,86.21
2022-09-09T20:16:19.035Z,86.20
2022-09-09T20:18:50.757Z,86.12
2022-09-09T20:21:21.129Z,85.87
2022-09-09T20:23:49.762Z,86.13
2022-09-09T20:26:20.848Z,85.84
2022-09-09T20:28:50.503Z,85.42
2022-09-09T20:31:19.975Z,85.15
2022-09-09T20:33:50.024Z,84.86
2022-09-09T20:36:20.026Z,85.66
2022-09-09T20:38:49.395Z,86.30
2022-09-09T20:41:21.515Z,86.41
2022-09-09T20:43:49.880Z,86.77
2022-09-09T20:46:18.730Z,87.33
2022-09-09T20:48:46.783Z,87.40
2022-09-09T20:51:17.172Z,87.92
2022-09-09T20:53:44.756Z,88.12
2022-09-09T20:56:13.129Z,88.34
2022-09-09T20:58:40.846Z,87.72
2022-09-09T21:01:08.478Z,88.21
2022-09-09T21:03:37.908Z,88.07
2022-09-09T21:06:06.105Z,88.30
2022-09-09T21:08:36.703Z,88.30
2022-09-09T21:11:04.988Z,88.30
2022-09-09T21:13:33.980Z,88.67
2022-09-09T21:16:01.933Z,88.39
2022-09-09T21:18:29.872Z,88.69
2022-09-09T21:20:57.741Z,89.00
2022-09-09T21:23:25.852Z,88.75
2022-09-09T21:25:55.338Z,88.95
2022-09-09T21:28:25.552Z,88.97
2022-09-09T21:30:55.750Z,89.74
2022-09-09T21:33:26.398Z,89.33
2022-09-09T21:35:54.003Z,89.13
2022-09-09T21:38:23.351Z,89.25
2022-09-09T21:40:51.248Z,88.64
2022-09-09T21:43:23.453Z,88.56
2022-09-09T21:45:51.463Z,89.87
2022-09-09T21:48:19.607Z,90.84
2022-09-09T21:50:48.887Z,89.16
2022-09-09T21:53:18.970Z,90.00
2022-09-09T21:55:48.528Z,89.87
2022-09-09T21:58:18.434Z,90.75
2022-09-09T22:00:48.355Z,88.47
2022-09-09T22:03:17.019Z,89.06
2022-09-09T22:05:48.734Z,90.01
2022-09-09T22:08:20.003Z,89.64
2022-09-09T22:10:48.095Z,90.76
2022-09-09T22:13:17.125Z,91.25
2022-09-09T22:15:46.148Z,92.27
2022-09-09T22:18:16.743Z,92.51
2022-09-09T22:20:47.116Z,92.85
2022-09-09T22:23:15.165Z,93.01
2022-09-09T22:25:44.045Z,93.46
2022-09-09T22:28:11.922Z,94.55
2022-09-09T22:30:39.605Z,94.89
2022-09-09T22:33:07.987Z,95.70
2022-09-09T22:35:42.471Z,96.06
2022-09-09T22:38:11.010Z,96.39
2022-09-09T22:40:39.625Z,95.81
2022-09-09T22:43:07.843Z,95.73
2022-09-09T22:45:35.719Z,95.35
2022-09-09T22:48:04.777Z,95.19
2022-09-09T22:50:37.844Z,94.99
2022-09-09T22:53:10.756Z,94.36
2022-09-09T22:55:38.290Z,93.83
2022-09-09T22:58:05.859Z,94.17
2022-09-09T23:00:33.376Z,93.48
2022-09-09T23:03:01.057Z,93.63
2022-09-09T23:05:28.636Z,93.57
2022-09-09T23:07:57.505Z,93.47
2022-09-09T23:10:27.029Z,94.29
2022-09-09T23:12:54.745Z,93.22
2022-09-09T23:15:22.976Z,93.58
2022-09-09T23:17:52.010Z,93.63
2022-09-09T23:20:20.021Z,93.83
2022-09-09T23:22:47.602Z,93.70
2022-09-09T23:25:15.123Z,93.40
2022-09-09T23:27:43.965Z,93.77
2022-09-09T23:30:12.427Z,93.86
2022-09-09T23:32:39.928Z,93.82
2022-09-09T23:35:08.048Z,94.41
2022-09-09T23:37:35.576Z,94.73
2022-09-09T23:40:03.746Z,95.17
2022-09-09T23:42:33.315Z,95.29
2022-09-09T23:45:02.170Z,95.68
2022-09-09T23:47:29.751Z,95.62
2022-09-09T23:49:57.282Z,96.16
2022-09-09T23:52:26.553Z,96.16
2022-09-09T23:54:55.454Z,95.95
2022-09-09T23:57:23.411Z,96.16
2022-09-09T23:59:50.914Z,96.03
